Time,TemperatureF,DewpointF,PressureIn,WindDirection,WindDirectionDegrees,WindSpeedMPH,WindSpeedGustMPH,Humidity,HourlyPrecipIn,Conditions,Clouds,dailyrainin,SolarRadiationWatts/m^2,SoftwareType,DateUTC
2013-07-15 00:02:00,66.0,65.0,-100.00,NNE,16,5.0,7.0,96,0.09,,,0.34,0.000000,,2013-07-15 05:02:00,
2013-07-15 00:32:00,66.0,65.0,-100.00,NNW,330,2.0,9.0,95,0.07,,,0.41,0.000000,,2013-07-15 05:32:00,
2013-07-15 00:43:00,66.0,65.0,-100.00,NNW,330,2.0,9.0,95,0.07,,,0.41,0.000000,,2013-07-15 05:43:00,
2013-07-15 00:53:00,66.0,65.0,-100.00,NNW,330,2.0,9.0,95,0.07,,,0.41,0.000000,,2013-07-15 05:53:00,
2013-07-15 01:02:00,66.0,65.0,-100.00,NNW,330,2.0,9.0,95,0.07,,,0.41,0.000000,,2013-07-15 06:02:00,
2013-07-15 01:32:00,66.0,65.0,-100.00,North,4,6.0,10.0,96,0.00,,,0.41,0.000000,,2013-07-15 06:32:00,
2013-07-15 01:42:00,66.0,65.0,-100.00,North,4,6.0,10.0,96,0.00,,,0.41,0.000000,,2013-07-15 06:42:00,
2013-07-15 01:53:00,66.0,65.0,-100.00,North,4,6.0,10.0,96,0.00,,,0.41,0.000000,,2013-07-15 06:53:00,
2013-07-15 02:01:00,66.0,65.0,-100.00,North,4,6.0,10.0,96,0.00,,,0.41,0.000000,,2013-07-15 07:01:00,
2013-07-15 02:33:00,65.0,64.0,-100.00,NNE,15,5.0,11.0,96,0.00,,,0.41,0.000000,,2013-07-15 07:33:00,
2013-07-15 02:44:00,65.0,64.0,-100.00,NNE,15,5.0,11.0,96,0.00,,,0.41,0.000000,,2013-07-15 07:44:00,
2013-07-15 02:53:00,65.0,64.0,-100.00,NNE,15,5.0,11.0,96,0.00,,,0.41,0.000000,,2013-07-15 07:53:00,
2013-07-15 03:01:00,65.0,64.0,-100.00,NNE,15,5.0,11.0,96,0.00,,,0.41,0.000000,,2013-07-15 08:01:00,
2013-07-15 03:32:00,65.0,64.0,-100.00,NNE,20,5.0,11.0,96,0.00,,,0.41,0.000000,,2013-07-15 08:32:00,
2013-07-15 03:43:00,65.0,64.0,-100.00,NNE,20,5.0,11.0,96,0.00,,,0.41,0.000000,,2013-07-15 08:43:00,
2013-07-15 03:53:00,65.0,64.0,-100.00,NNE,20,5.0,11.0,96,0.00,,,0.41,0.000000,,2013-07-15 08:53:00,
2013-07-15 04:01:00,65.0,64.0,-100.00,NNE,20,5.0,11.0,96,0.00,,,0.41,0.000000,,2013-07-15 09:01:00,
2013-07-15 04:32:00,66.0,65.0,-100.00,North,352,0.0,7.0,95,0.00,,,0.41,0.000000,,2013-07-15 09:32:00,
2013-07-15 04:43:00,66.0,65.0,-100.00,North,352,0.0,7.0,95,0.00,,,0.41,0.000000,,2013-07-15 09:43:00,
2013-07-15 04:52:00,66.0,65.0,-100.00,North,352,0.0,7.0,95,0.00,,,0.41,0.000000,,2013-07-15 09:52:00,
2013-07-15 05:02:00,66.0,65.0,-100.00,North,352,0.0,7.0,95,0.00,,,0.41,0.000000,,2013-07-15 10:02:00,
2013-07-15 05:32:00,65.0,64.0,-100.00,West,280,2.0,4.0,96,0.01,,,0.42,0.000000,,2013-07-15 10:32:00,
2013-07-15 05:43:00,65.0,64.0,-100.00,West,280,2.0,4.0,96,0.01,,,0.42,0.000000,,2013-07-15 10:43:00,
2013-07-15 05:53:00,65.0,64.0,-100.00,West,280,2.0,4.0,96,0.01,,,0.42,0.000000,,2013-07-15 10:53:00,
2013-07-15 06:01:00,65.0,64.0,-100.00,West,280,2.0,4.0,96,0.01,,,0.42,0.000000,,2013-07-15 11:01:00,
2013-07-15 06:32:00,66.0,65.0,-100.00,WNW,302,5.0,6.0,97,0.00,,,0.42,0.000000,,2013-07-15 11:32:00,
2013-07-15 06:42:00,66.0,65.0,-100.00,WNW,302,5.0,6.0,97,0.00,,,0.42,0.000000,,2013-07-15 11:42:00,
2013-07-15 06:52:00,66.0,65.0,-100.00,WNW,302,5.0,6.0,97,0.00,,,0.42,0.000000,,2013-07-15 11:52:00,
2013-07-15 07:01:00,66.0,65.0,-100.00,WNW,302,5.0,6.0,97,0.00,,,0.42,0.000000,,2013-07-15 12:01:00,
2013-07-15 07:33:00,66.0,65.0,-100.00,NW,312,5.0,7.0,97,0.00,,,0.42,1.000000,,2013-07-15 12:33:00,
2013-07-15 07:42:00,66.0,65.0,-100.00,NW,312,5.0,7.0,97,0.00,,,0.42,1.000000,,2013-07-15 12:42:00,
2013-07-15 07:53:00,66.0,65.0,-100.00,NW,312,5.0,7.0,97,0.00,,,0.42,1.000000,,2013-07-15 12:53:00,
2013-07-15 08:01:00,66.0,65.0,-100.00,NW,312,5.0,7.0,97,0.00,,,0.42,1.000000,,2013-07-15 13:01:00,
2013-07-15 08:33:00,66.0,65.0,-100.00,NNW,341,5.0,8.0,97,0.07,,,0.49,11.000000,,2013-07-15 13:33:00,
2013-07-15 08:43:00,66.0,65.0,-100.00,NNW,341,5.0,8.0,97,0.07,,,0.49,11.000000,,2013-07-15 13:43:00,
2013-07-15 08:53:00,66.0,65.0,-100.00,NNW,341,5.0,8.0,97,0.07,,,0.49,11.000000,,2013-07-15 13:53:00,
2013-07-15 09:02:00,66.0,65.0,-100.00,NNW,341,5.0,8.0,97,0.07,,,0.49,11.000000,,2013-07-15 14:02:00,
2013-07-15 09:33:00,66.0,65.0,-100.00,NNE,18,5.0,8.0,98,0.06,,,0.55,24.000000,,2013-07-15 14:33:00,
2013-07-15 09:42:00,66.0,65.0,-100.00,NNE,18,5.0,8.0,98,0.06,,,0.55,24.000000,,2013-07-15 14:42:00,
2013-07-15 10:00:00,66.0,65.0,-100.00,NNE,18,5.0,8.0,98,0.06,,,0.55,24.000000,,2013-07-15 15:00:00,
2013-07-15 10:05:00,66.0,65.0,-100.00,NE,38,5.0,10.0,97,0.01,,,0.56,34.000000,,2013-07-15 15:05:00,
2013-07-15 10:53:00,66.0,65.0,-100.00,NE,38,5.0,10.0,97,0.01,,,0.56,34.000000,,2013-07-15 15:53:00,
2013-07-15 11:33:00,66.0,65.0,-100.00,NE,48,5.0,10.0,97,0.02,,,0.58,55.000000,,2013-07-15 16:33:00,
2013-07-15 11:48:00,66.0,65.0,-100.00,NE,48,5.0,10.0,97,0.02,,,0.58,55.000000,,2013-07-15 16:48:00,
2013-07-15 12:04:00,66.0,65.0,-100.00,NE,48,5.0,10.0,97,0.02,,,0.58,55.000000,,2013-07-15 17:04:00,
2013-07-15 12:36:00,67.0,66.0,-100.00,East,88,4.0,8.0,96,0.02,,,-99.99,90.000000,,2013-07-15 17:36:00,
2013-07-15 12:50:00,67.0,66.0,-100.00,East,88,4.0,8.0,96,0.02,,,-99.99,90.000000,,2013-07-15 17:50:00,
2013-07-15 12:59:00,67.0,66.0,-100.00,East,88,4.0,8.0,96,0.02,,,-99.99,90.000000,,2013-07-15 17:59:00,
2013-07-15 13:05:00,69.0,68.0,-100.00,East,86,5.0,7.0,95,0.01,,,0.61,109.000000,,2013-07-15 18:05:00,
2013-07-15 13:40:00,69.0,68.0,-100.00,East,86,5.0,7.0,95,0.01,,,0.61,109.000000,,2013-07-15 18:40:00,
2013-07-15 13:45:00,69.0,68.0,-100.00,East,86,5.0,7.0,95,0.01,,,0.61,109.000000,,2013-07-15 18:45:00,
2013-07-15 13:59:00,69.0,68.0,-100.00,East,86,5.0,7.0,95,0.01,,,0.61,109.000000,,2013-07-15 18:59:00,
2013-07-15 14:05:00,69.0,67.0,-100.00,SE,129,5.0,8.0,94,0.01,,,0.62,127.000000,,2013-07-15 19:05:00,
2013-07-15 14:38:00,69.0,67.0,-100.00,SE,129,5.0,8.0,94,0.01,,,0.62,127.000000,,2013-07-15 19:38:00,
2013-07-15 14:56:00,69.0,67.0,-100.00,SE,129,5.0,8.0,94,0.01,,,0.62,127.000000,,2013-07-15 19:56:00,
2013-07-15 15:37:00,70.0,68.0,-100.00,SE,130,6.0,10.0,94,0.01,,,0.63,132.000000,,2013-07-15 20:37:00,
2013-07-15 15:43:00,70.0,68.0,-100.00,SE,130,6.0,10.0,94,0.01,,,0.63,132.000000,,2013-07-15 20:43:00,
2013-07-15 15:58:00,70.0,68.0,-100.00,SE,130,6.0,10.0,94,0.01,,,0.63,132.000000,,2013-07-15 20:58:00,
2013-07-15 16:40:00,70.0,69.0,-100.00,ESE,121,7.0,10.0,96,0.04,,,0.67,137.000000,,2013-07-15 21:40:00,
2013-07-15 16:48:00,70.0,69.0,-100.00,ESE,121,7.0,10.0,96,0.04,,,0.67,137.000000,,2013-07-15 21:48:00,
2013-07-15 17:00:00,70.0,69.0,-100.00,ESE,121,7.0,10.0,96,0.04,,,0.67,137.000000,,2013-07-15 22:00:00,
2013-07-15 17:44:00,70.0,68.0,-100.00,SE,125,8.0,14.0,93,0.00,,,0.67,159.000000,,2013-07-15 22:44:00,
2013-07-15 17:54:00,70.0,68.0,-100.00,SE,125,8.0,14.0,93,0.00,,,0.67,159.000000,,2013-07-15 22:54:00,
2013-07-15 18:04:00,70.0,68.0,-100.00,SE,125,8.0,14.0,93,0.00,,,0.67,159.000000,,2013-07-15 23:04:00,
2013-07-15 18:40:00,72.0,69.0,-100.00,ESE,123,10.0,13.0,89,0.00,,,0.67,262.000000,,2013-07-15 23:40:00,
2013-07-15 18:54:00,72.0,69.0,-100.00,ESE,123,10.0,13.0,89,0.00,,,0.67,262.000000,,2013-07-15 23:54:00,
2013-07-15 19:03:00,72.0,69.0,-100.00,ESE,123,10.0,13.0,89,0.00,,,0.67,262.000000,,2013-07-16 00:03:00,
2013-07-15 19:05:00,70.0,68.0,-100.00,ESE,107,8.0,15.0,92,0.00,,,0.65,88.000000,,2013-07-16 00:05:00,
2013-07-15 19:34:00,70.0,68.0,-100.00,ESE,107,8.0,15.0,92,0.00,,,0.65,88.000000,,2013-07-16 00:34:00,
2013-07-15 19:53:00,70.0,68.0,-100.00,ESE,107,8.0,15.0,92,0.00,,,0.65,88.000000,,2013-07-16 00:53:00,
2013-07-15 20:49:00,70.0,68.0,-100.00,ESE,113,9.0,14.0,92,0.00,,,0.53,21.000000,,2013-07-16 01:49:00,
2013-07-15 21:01:00,70.0,68.0,-100.00,ESE,113,9.0,14.0,92,0.00,,,0.53,21.000000,,2013-07-16 02:01:00,
2013-07-15 21:05:00,70.0,68.0,-100.00,East,85,7.0,16.0,94,0.01,,,0.47,3.000000,,2013-07-16 02:05:00,
2013-07-15 21:35:00,70.0,68.0,-100.00,East,85,7.0,16.0,94,0.01,,,0.47,3.000000,,2013-07-16 02:35:00,
2013-07-15 21:54:00,70.0,68.0,-100.00,East,85,7.0,16.0,94,0.01,,,0.47,3.000000,,2013-07-16 02:54:00,
2013-07-15 22:49:00,70.0,69.0,-100.00,East,99,7.0,11.0,97,0.03,,,0.46,0.000000,,2013-07-16 03:49:00,
2013-07-15 22:57:00,70.0,69.0,-100.00,East,99,7.0,11.0,97,0.03,,,0.46,0.000000,,2013-07-16 03:57:00,
2013-07-15 23:01:00,70.0,69.0,-100.00,East,99,7.0,11.0,97,0.03,,,0.46,0.000000,,2013-07-16 04:01:00,